Decoded Metar for KBHK (BAKER in MT, USA) (IATA:BHK) | Meteo·Mobile Aviation Weather
aviador You're here:

KBHK Decoded Metar

BAKER in MT, USA
Report Time2018-12-11 09:51:00
UTC Time2018-12-11 09:57:28
Flight Rules vfr VFR
Wind330° at 07 kt
W.Decomp.*RWY 31: 6.9 kt HW 1.0 kt RCW
W.Rank330° ranks 13
Current wind is below 330° avg. (11.5)
Visibility9999 m
Phenomena:N/A
Clouds:Broken 090 Hf
Overcast 110 Hf
Expected CloudBase > 1,600 ft AGL from Temp-Dew spread
Ceiling9,000 ft
Temp-2°C (ISA -11)
Dew Point-6°C (74% RH)
AAT-7.2°C
QNH1015 hPa
Density Alt1,601 ft
Elevation2,959 ft
Report Wrong Elevation
Raw Report
KBHK 110951Z AUTO 33007KT 10SM BKN090 OVC110 M02/M06 A2998 RMK AO2
SLP174 T10171056=

Extra information for KBHK:More info

Metar Taf Metar & Taf Last 4 Metars F.Rules Stats Wind Profile Meteogram Temp Stats Airport Information Weather charts Add Link Nearby VenuesMetar ALERT Operation Metar Decoded Social comments

AIRNAV info for KBHK